sensor_id;sensor_type;location;lat;lon;timestamp;P1;durP1;ratioP1;P2;durP2;ratioP2
13321;SDS011;6730;46.248;6.930;2022-12-10T00:01:07;3.70;;;2.73;;
13321;SDS011;6730;46.248;6.930;2022-12-10T00:03:35;34.07;;;5.70;;
13321;SDS011;6730;46.248;6.930;2022-12-10T00:06:01;93.63;;;10.30;;
13321;SDS011;6730;46.248;6.930;2022-12-10T00:08:28;82.83;;;9.00;;
13321;SDS011;6730;46.248;6.930;2022-12-10T00:10:54;143.77;;;11.70;;
13321;SDS011;6730;46.248;6.930;2022-12-10T00:13:20;18.63;;;3.60;;
13321;SDS011;6730;46.248;6.930;2022-12-10T00:15:46;191.83;;;14.97;;
13321;SDS011;6730;46.248;6.930;2022-12-10T00:18:11;26.93;;;4.80;;
13321;SDS011;6730;46.248;6.930;2022-12-10T00:20:37;2.80;;;2.30;;
13321;SDS011;6730;46.248;6.930;2022-12-10T00:23:03;3.40;;;2.73;;
13321;SDS011;6730;46.248;6.930;2022-12-10T00:25:29;3.40;;;2.50;;
13321;SDS011;6730;46.248;6.930;2022-12-10T00:27:58;11.23;;;4.70;;
13321;SDS011;6730;46.248;6.930;2022-12-10T00:30:29;19.63;;;4.40;;
13321;SDS011;6730;46.248;6.930;2022-12-10T00:33:04;4.27;;;3.00;;
13321;SDS011;6730;46.248;6.930;2022-12-10T00:35:37;4.23;;;3.17;;
13321;SDS011;6730;46.248;6.930;2022-12-10T00:38:08;5.83;;;3.00;;
13321;SDS011;6730;46.248;6.930;2022-12-10T00:40:49;13.20;;;3.30;;
13321;SDS011;6730;46.248;6.930;2022-12-10T00:43:18;3.03;;;2.43;;
13321;SDS011;6730;46.248;6.930;2022-12-10T00:45:47;2.60;;;2.40;;
13321;SDS011;6730;46.248;6.930;2022-12-10T00:48:16;3.57;;;2.87;;
13321;SDS011;6730;46.248;6.930;2022-12-10T00:50:58;3.00;;;2.30;;
13321;SDS011;6730;46.248;6.930;2022-12-10T00:53:35;3.43;;;2.60;;
13321;SDS011;6730;46.248;6.930;2022-12-10T00:56:02;2.53;;;2.27;;
13321;SDS011;6730;46.248;6.930;2022-12-10T00:58:29;3.67;;;2.60;;
13321;SDS011;6730;46.248;6.930;2022-12-10T01:01:06;3.20;;;2.40;;
13321;SDS011;6730;46.248;6.930;2022-12-10T01:03:49;3.93;;;2.47;;
13321;SDS011;6730;46.248;6.930;2022-12-10T01:06:23;2.77;;;2.10;;
13321;SDS011;6730;46.248;6.930;2022-12-10T01:08:51;3.03;;;2.33;;
13321;SDS011;6730;46.248;6.930;2022-12-10T01:11:20;3.13;;;2.07;;
13321;SDS011;6730;46.248;6.930;2022-12-10T01:13:46;2.33;;;1.90;;
13321;SDS011;6730;46.248;6.930;2022-12-10T01:16:14;2.07;;;1.40;;
13321;SDS011;6730;46.248;6.930;2022-12-10T01:18:42;1.63;;;1.30;;
13321;SDS011;6730;46.248;6.930;2022-12-10T01:21:09;1.10;;;1.00;;
13321;SDS011;6730;46.248;6.930;2022-12-10T01:23:37;1.00;;;0.90;;
13321;SDS011;6730;46.248;6.930;2022-12-10T01:26:05;1.10;;;1.00;;
13321;SDS011;6730;46.248;6.930;2022-12-10T01:28:33;1.27;;;1.10;;
13321;SDS011;6730;46.248;6.930;2022-12-10T01:31:01;1.20;;;1.00;;
13321;SDS011;6730;46.248;6.930;2022-12-10T01:33:28;1.23;;;1.00;;
13321;SDS011;6730;46.248;6.930;2022-12-10T01:35:54;0.80;;;0.80;;
13321;SDS011;6730;46.248;6.930;2022-12-10T01:38:20;1.03;;;0.80;;
13321;SDS011;6730;46.248;6.930;2022-12-10T01:40:45;0.50;;;0.50;;
13321;SDS011;6730;46.248;6.930;2022-12-10T01:43:12;0.60;;;0.60;;
13321;SDS011;6730;46.248;6.930;2022-12-10T01:45:39;0.83;;;0.70;;
13321;SDS011;6730;46.248;6.930;2022-12-10T01:48:05;0.60;;;0.53;;
13321;SDS011;6730;46.248;6.930;2022-12-10T01:50:31;0.87;;;0.60;;
13321;SDS011;6730;46.248;6.930;2022-12-10T01:52:57;0.40;;;0.40;;
13321;SDS011;6730;46.248;6.930;2022-12-10T01:58:13;0.30;;;0.30;;
13321;SDS011;6730;46.248;6.930;2022-12-10T02:00:43;1.27;;;0.37;;
13321;SDS011;6730;46.248;6.930;2022-12-10T02:03:35;0.40;;;0.40;;
13321;SDS011;6730;46.248;6.930;2022-12-10T02:06:17;0.40;;;0.40;;
13321;SDS011;6730;46.248;6.930;2022-12-10T02:08:57;0.67;;;0.60;;
13321;SDS011;6730;46.248;6.930;2022-12-10T02:11:34;0.80;;;0.60;;
13321;SDS011;6730;46.248;6.930;2022-12-10T02:14:04;0.77;;;0.77;;
13321;SDS011;6730;46.248;6.930;2022-12-10T02:16:44;0.33;;;0.33;;
13321;SDS011;6730;46.248;6.930;2022-12-10T02:19:22;1.13;;;0.50;;
13321;SDS011;6730;46.248;6.930;2022-12-10T02:22:00;0.40;;;0.40;;
13321;SDS011;6730;46.248;6.930;2022-12-10T02:24:28;0.60;;;0.50;;
13321;SDS011;6730;46.248;6.930;2022-12-10T02:27:02;0.43;;;0.30;;
13321;SDS011;6730;46.248;6.930;2022-12-10T02:29:35;0.80;;;0.53;;
13321;SDS011;6730;46.248;6.930;2022-12-10T02:32:06;0.50;;;0.50;;
13321;SDS011;6730;46.248;6.930;2022-12-10T02:34:40;0.40;;;0.40;;
13321;SDS011;6730;46.248;6.930;2022-12-10T02:37:11;0.43;;;0.43;;
13321;SDS011;6730;46.248;6.930;2022-12-10T02:39:42;0.40;;;0.40;;
13321;SDS011;6730;46.248;6.930;2022-12-10T02:42:11;0.40;;;0.40;;
13321;SDS011;6730;46.248;6.930;2022-12-10T02:44:39;0.30;;;0.30;;
13321;SDS011;6730;46.248;6.930;2022-12-10T02:47:07;0.43;;;0.43;;
13321;SDS011;6730;46.248;6.930;2022-12-10T02:49:34;0.60;;;0.60;;
13321;SDS011;6730;46.248;6.930;2022-12-10T02:52:12;0.57;;;0.57;;
13321;SDS011;6730;46.248;6.930;2022-12-10T02:54:41;0.40;;;0.40;;
13321;SDS011;6730;46.248;6.930;2022-12-10T02:57:12;0.70;;;0.60;;
13321;SDS011;6730;46.248;6.930;2022-12-10T03:00:03;0.50;;;0.50;;
13321;SDS011;6730;46.248;6.930;2022-12-10T03:02:54;0.50;;;0.50;;
13321;SDS011;6730;46.248;6.930;2022-12-10T03:05:45;0.37;;;0.37;;
13321;SDS011;6730;46.248;6.930;2022-12-10T03:08:24;0.60;;;0.60;;
13321;SDS011;6730;46.248;6.930;2022-12-10T03:14:05;0.50;;;0.50;;
13321;SDS011;6730;46.248;6.930;2022-12-10T03:16:25;0.83;;;0.80;;
13321;SDS011;6730;46.248;6.930;2022-12-10T03:18:57;0.67;;;0.67;;
13321;SDS011;6730;46.248;6.930;2022-12-10T03:21:26;0.60;;;0.60;;
13321;SDS011;6730;46.248;6.930;2022-12-10T03:23:53;0.70;;;0.70;;
13321;SDS011;6730;46.248;6.930;2022-12-10T03:26:19;0.77;;;0.70;;
13321;SDS011;6730;46.248;6.930;2022-12-10T03:28:48;0.80;;;0.70;;
13321;SDS011;6730;46.248;6.930;2022-12-10T03:31:20;0.50;;;0.50;;
13321;SDS011;6730;46.248;6.930;2022-12-10T03:33:46;0.43;;;0.43;;
13321;SDS011;6730;46.248;6.930;2022-12-10T03:36:13;0.70;;;0.70;;
13321;SDS011;6730;46.248;6.930;2022-12-10T03:38:41;0.40;;;0.40;;
13321;SDS011;6730;46.248;6.930;2022-12-10T03:41:08;0.50;;;0.50;;
13321;SDS011;6730;46.248;6.930;2022-12-10T03:43:34;0.60;;;0.60;;
13321;SDS011;6730;46.248;6.930;2022-12-10T03:46:00;0.50;;;0.50;;
13321;SDS011;6730;46.248;6.930;2022-12-10T03:48:25;0.60;;;0.60;;
13321;SDS011;6730;46.248;6.930;2022-12-10T03:50:51;0.50;;;0.50;;
13321;SDS011;6730;46.248;6.930;2022-12-10T03:53:17;0.70;;;0.63;;
13321;SDS011;6730;46.248;6.930;2022-12-10T03:55:43;0.80;;;0.80;;
13321;SDS011;6730;46.248;6.930;2022-12-10T03:58:09;0.90;;;0.90;;
13321;SDS011;6730;46.248;6.930;2022-12-10T04:00:34;1.00;;;0.90;;
13321;SDS011;6730;46.248;6.930;2022-12-10T04:03:00;1.10;;;1.00;;
13321;SDS011;6730;46.248;6.930;2022-12-10T04:05:26;0.90;;;0.90;;
13321;SDS011;6730;46.248;6.930;2022-12-10T04:07:51;0.73;;;0.73;;
13321;SDS011;6730;46.248;6.930;2022-12-10T04:10:17;0.70;;;0.70;;
13321;SDS011;6730;46.248;6.930;2022-12-10T04:12:43;1.53;;;1.00;;
13321;SDS011;6730;46.248;6.930;2022-12-10T04:15:28;1.50;;;1.30;;
13321;SDS011;6730;46.248;6.930;2022-12-10T04:18:12;1.20;;;1.10;;
13321;SDS011;6730;46.248;6.930;2022-12-10T04:20:38;1.27;;;1.10;;
13321;SDS011;6730;46.248;6.930;2022-12-10T04:23:22;1.10;;;1.00;;
13321;SDS011;6730;46.248;6.930;2022-12-10T04:26:06;0.90;;;0.80;;
13321;SDS011;6730;46.248;6.930;2022-12-10T04:28:50;0.97;;;0.93;;
13321;SDS011;6730;46.248;6.930;2022-12-10T04:31:16;1.20;;;1.10;;
13321;SDS011;6730;46.248;6.930;2022-12-10T04:33:42;1.10;;;1.00;;
13321;SDS011;6730;46.248;6.930;2022-12-10T04:36:07;1.87;;;1.50;;
13321;SDS011;6730;46.248;6.930;2022-12-10T04:38:35;2.13;;;1.93;;
13321;SDS011;6730;46.248;6.930;2022-12-10T04:41:00;2.03;;;1.70;;
13321;SDS011;6730;46.248;6.930;2022-12-10T04:43:26;0.97;;;0.90;;
13321;SDS011;6730;46.248;6.930;2022-12-10T04:45:55;1.30;;;1.20;;
13321;SDS011;6730;46.248;6.930;2022-12-10T04:48:21;1.37;;;1.27;;
13321;SDS011;6730;46.248;6.930;2022-12-10T04:50:46;1.30;;;1.20;;
13321;SDS011;6730;46.248;6.930;2022-12-10T04:53:12;1.20;;;1.10;;
13321;SDS011;6730;46.248;6.930;2022-12-10T04:55:38;1.47;;;1.37;;
13321;SDS011;6730;46.248;6.930;2022-12-10T04:58:03;1.43;;;1.30;;
13321;SDS011;6730;46.248;6.930;2022-12-10T05:00:29;1.40;;;1.27;;
13321;SDS011;6730;46.248;6.930;2022-12-10T05:02:54;1.23;;;1.10;;
13321;SDS011;6730;46.248;6.930;2022-12-10T05:05:20;0.80;;;0.80;;
13321;SDS011;6730;46.248;6.930;2022-12-10T05:07:46;0.70;;;0.70;;
13321;SDS011;6730;46.248;6.930;2022-12-10T05:10:11;0.73;;;0.73;;
13321;SDS011;6730;46.248;6.930;2022-12-10T05:12:37;0.80;;;0.80;;
13321;SDS011;6730;46.248;6.930;2022-12-10T05:15:03;0.63;;;0.63;;
13321;SDS011;6730;46.248;6.930;2022-12-10T05:17:29;0.60;;;0.60;;
13321;SDS011;6730;46.248;6.930;2022-12-10T05:19:54;0.80;;;0.80;;
13321;SDS011;6730;46.248;6.930;2022-12-10T05:22:20;0.80;;;0.80;;
13321;SDS011;6730;46.248;6.930;2022-12-10T05:25:04;2.33;;;1.50;;
13321;SDS011;6730;46.248;6.930;2022-12-10T05:27:31;1.30;;;1.00;;
13321;SDS011;6730;46.248;6.930;2022-12-10T05:29:57;0.70;;;0.60;;
13321;SDS011;6730;46.248;6.930;2022-12-10T05:32:23;0.70;;;0.70;;
13321;SDS011;6730;46.248;6.930;2022-12-10T05:34:48;0.97;;;0.90;;
13321;SDS011;6730;46.248;6.930;2022-12-10T05:37:14;1.00;;;0.90;;
13321;SDS011;6730;46.248;6.930;2022-12-10T05:39:40;1.30;;;1.00;;
13321;SDS011;6730;46.248;6.930;2022-12-10T05:42:05;0.80;;;0.80;;
13321;SDS011;6730;46.248;6.930;2022-12-10T05:44:31;1.30;;;1.20;;
13321;SDS011;6730;46.248;6.930;2022-12-10T05:46:57;1.13;;;1.03;;
13321;SDS011;6730;46.248;6.930;2022-12-10T05:49:22;2.00;;;1.70;;
13321;SDS011;6730;46.248;6.930;2022-12-10T05:51:48;1.57;;;1.47;;
13321;SDS011;6730;46.248;6.930;2022-12-10T05:54:13;1.27;;;1.17;;
13321;SDS011;6730;46.248;6.930;2022-12-10T05:56:39;1.40;;;1.30;;
13321;SDS011;6730;46.248;6.930;2022-12-10T05:59:05;1.13;;;1.03;;
13321;SDS011;6730;46.248;6.930;2022-12-10T06:01:32;1.10;;;1.00;;
13321;SDS011;6730;46.248;6.930;2022-12-10T06:03:59;1.23;;;1.13;;
13321;SDS011;6730;46.248;6.930;2022-12-10T06:06:29;1.50;;;1.40;;
13321;SDS011;6730;46.248;6.930;2022-12-10T06:08:57;1.50;;;1.40;;
13321;SDS011;6730;46.248;6.930;2022-12-10T06:11:24;1.80;;;1.30;;
13321;SDS011;6730;46.248;6.930;2022-12-10T06:13:51;1.93;;;1.73;;
13321;SDS011;6730;46.248;6.930;2022-12-10T06:16:17;1.33;;;1.23;;
13321;SDS011;6730;46.248;6.930;2022-12-10T06:18:43;1.47;;;1.30;;
13321;SDS011;6730;46.248;6.930;2022-12-10T06:21:10;1.17;;;1.00;;
13321;SDS011;6730;46.248;6.930;2022-12-10T06:23:39;1.17;;;1.07;;
13321;SDS011;6730;46.248;6.930;2022-12-10T06:26:16;1.53;;;1.43;;
13321;SDS011;6730;46.248;6.930;2022-12-10T06:28:44;1.20;;;1.10;;
13321;SDS011;6730;46.248;6.930;2022-12-10T06:31:11;1.37;;;1.27;;
13321;SDS011;6730;46.248;6.930;2022-12-10T06:33:36;1.20;;;1.10;;
13321;SDS011;6730;46.248;6.930;2022-12-10T06:36:03;1.33;;;1.10;;
13321;SDS011;6730;46.248;6.930;2022-12-10T06:38:34;1.20;;;1.10;;
13321;SDS011;6730;46.248;6.930;2022-12-10T06:41:00;1.40;;;1.10;;
13321;SDS011;6730;46.248;6.930;2022-12-10T06:43:30;1.47;;;1.10;;
13321;SDS011;6730;46.248;6.930;2022-12-10T06:45:55;1.00;;;0.90;;
13321;SDS011;6730;46.248;6.930;2022-12-10T06:48:21;1.10;;;1.00;;
13321;SDS011;6730;46.248;6.930;2022-12-10T06:50:47;1.63;;;1.53;;
13321;SDS011;6730;46.248;6.930;2022-12-10T06:53:13;1.37;;;1.27;;
13321;SDS011;6730;46.248;6.930;2022-12-10T06:55:38;1.40;;;1.10;;
13321;SDS011;6730;46.248;6.930;2022-12-10T06:58:04;0.93;;;0.93;;
13321;SDS011;6730;46.248;6.930;2022-12-10T07:00:30;1.10;;;0.90;;
13321;SDS011;6730;46.248;6.930;2022-12-10T07:02:56;1.03;;;1.00;;
13321;SDS011;6730;46.248;6.930;2022-12-10T07:05:21;1.03;;;0.93;;
13321;SDS011;6730;46.248;6.930;2022-12-10T07:07:47;1.27;;;1.13;;
13321;SDS011;6730;46.248;6.930;2022-12-10T07:10:13;1.97;;;1.00;;
13321;SDS011;6730;46.248;6.930;2022-12-10T07:12:38;1.70;;;1.20;;
13321;SDS011;6730;46.248;6.930;2022-12-10T07:15:04;1.40;;;1.30;;
13321;SDS011;6730;46.248;6.930;2022-12-10T07:17:31;1.40;;;1.30;;
13321;SDS011;6730;46.248;6.930;2022-12-10T07:19:57;1.40;;;1.30;;
13321;SDS011;6730;46.248;6.930;2022-12-10T07:22:22;1.30;;;1.20;;
13321;SDS011;6730;46.248;6.930;2022-12-10T07:24:48;1.60;;;1.50;;
13321;SDS011;6730;46.248;6.930;2022-12-10T07:27:15;1.50;;;1.37;;
13321;SDS011;6730;46.248;6.930;2022-12-10T07:29:40;1.70;;;1.40;;
13321;SDS011;6730;46.248;6.930;2022-12-10T07:32:06;2.10;;;1.90;;
13321;SDS011;6730;46.248;6.930;2022-12-10T07:34:33;2.13;;;1.70;;
13321;SDS011;6730;46.248;6.930;2022-12-10T07:36:59;1.50;;;1.40;;
13321;SDS011;6730;46.248;6.930;2022-12-10T07:39:24;1.30;;;1.20;;
13321;SDS011;6730;46.248;6.930;2022-12-10T07:41:51;1.70;;;1.30;;
13321;SDS011;6730;46.248;6.930;2022-12-10T07:44:20;1.80;;;1.70;;
13321;SDS011;6730;46.248;6.930;2022-12-10T07:46:48;1.60;;;1.40;;
13321;SDS011;6730;46.248;6.930;2022-12-10T07:49:16;1.83;;;1.47;;
13321;SDS011;6730;46.248;6.930;2022-12-10T07:51:48;2.00;;;1.80;;
13321;SDS011;6730;46.248;6.930;2022-12-10T07:54:14;2.30;;;1.90;;
13321;SDS011;6730;46.248;6.930;2022-12-10T07:56:42;1.97;;;1.80;;
13321;SDS011;6730;46.248;6.930;2022-12-10T07:59:08;2.67;;;2.00;;
13321;SDS011;6730;46.248;6.930;2022-12-10T08:01:34;2.70;;;1.83;;
13321;SDS011;6730;46.248;6.930;2022-12-10T08:04:00;2.00;;;1.80;;
13321;SDS011;6730;46.248;6.930;2022-12-10T08:06:28;1.43;;;1.33;;
13321;SDS011;6730;46.248;6.930;2022-12-10T08:08:54;1.60;;;1.50;;
13321;SDS011;6730;46.248;6.930;2022-12-10T08:11:21;1.70;;;1.30;;
13321;SDS011;6730;46.248;6.930;2022-12-10T08:13:47;2.00;;;1.77;;
13321;SDS011;6730;46.248;6.930;2022-12-10T08:16:15;1.87;;;1.60;;
13321;SDS011;6730;46.248;6.930;2022-12-10T08:18:43;1.70;;;1.50;;
13321;SDS011;6730;46.248;6.930;2022-12-10T08:21:15;1.63;;;1.53;;
13321;SDS011;6730;46.248;6.930;2022-12-10T08:23:42;1.83;;;1.67;;
13321;SDS011;6730;46.248;6.930;2022-12-10T08:26:09;1.73;;;1.60;;
13321;SDS011;6730;46.248;6.930;2022-12-10T08:28:37;1.70;;;1.57;;
13321;SDS011;6730;46.248;6.930;2022-12-10T08:31:03;1.70;;;1.60;;
13321;SDS011;6730;46.248;6.930;2022-12-10T08:33:29;1.67;;;1.40;;
13321;SDS011;6730;46.248;6.930;2022-12-10T08:35:58;1.40;;;1.30;;
13321;SDS011;6730;46.248;6.930;2022-12-10T08:38:27;1.93;;;1.43;;
13321;SDS011;6730;46.248;6.930;2022-12-10T08:40:53;1.70;;;1.60;;
13321;SDS011;6730;46.248;6.930;2022-12-10T08:43:19;1.67;;;1.50;;
13321;SDS011;6730;46.248;6.930;2022-12-10T08:45:45;1.80;;;1.60;;
13321;SDS011;6730;46.248;6.930;2022-12-10T08:48:11;1.40;;;1.30;;
13321;SDS011;6730;46.248;6.930;2022-12-10T08:50:37;1.57;;;1.47;;
13321;SDS011;6730;46.248;6.930;2022-12-10T08:53:03;2.13;;;1.93;;
13321;SDS011;6730;46.248;6.930;2022-12-10T08:55:28;2.03;;;1.50;;
13321;SDS011;6730;46.248;6.930;2022-12-10T08:57:55;1.70;;;1.30;;
13321;SDS011;6730;46.248;6.930;2022-12-10T09:00:22;1.90;;;1.70;;
13321;SDS011;6730;46.248;6.930;2022-12-10T09:02:48;2.20;;;1.77;;
13321;SDS011;6730;46.248;6.930;2022-12-10T09:05:13;1.37;;;1.27;;
13321;SDS011;6730;46.248;6.930;2022-12-10T09:07:39;1.70;;;1.53;;
13321;SDS011;6730;46.248;6.930;2022-12-10T09:10:05;1.90;;;1.70;;
13321;SDS011;6730;46.248;6.930;2022-12-10T09:12:32;2.00;;;1.80;;
13321;SDS011;6730;46.248;6.930;2022-12-10T09:14:59;2.17;;;1.97;;
13321;SDS011;6730;46.248;6.930;2022-12-10T09:17:25;1.57;;;1.47;;
13321;SDS011;6730;46.248;6.930;2022-12-10T09:19:50;173.53;;;16.07;;
13321;SDS011;6730;46.248;6.930;2022-12-10T09:22:16;383.30;;;33.57;;
13321;SDS011;6730;46.248;6.930;2022-12-10T09:24:41;218.63;;;23.30;;
13321;SDS011;6730;46.248;6.930;2022-12-10T09:27:07;3.30;;;2.47;;
13321;SDS011;6730;46.248;6.930;2022-12-10T09:29:33;38.83;;;5.03;;
13321;SDS011;6730;46.248;6.930;2022-12-10T09:31:58;116.00;;;11.93;;
13321;SDS011;6730;46.248;6.930;2022-12-10T09:34:24;3.43;;;2.93;;
13321;SDS011;6730;46.248;6.930;2022-12-10T09:36:50;4.50;;;4.03;;
13321;SDS011;6730;46.248;6.930;2022-12-10T09:39:15;4.10;;;3.30;;
13321;SDS011;6730;46.248;6.930;2022-12-10T09:44:30;3.80;;;3.07;;
13321;SDS011;6730;46.248;6.930;2022-12-10T09:47:03;3.50;;;3.13;;
13321;SDS011;6730;46.248;6.930;2022-12-10T09:52:37;8.03;;;3.97;;
13321;SDS011;6730;46.248;6.930;2022-12-10T09:55:11;6.00;;;4.57;;
13321;SDS011;6730;46.248;6.930;2022-12-10T09:57:41;4.43;;;4.03;;
13321;SDS011;6730;46.248;6.930;2022-12-10T10:03:04;30.23;;;8.63;;
13321;SDS011;6730;46.248;6.930;2022-12-10T10:05:41;51.70;;;10.10;;
13321;SDS011;6730;46.248;6.930;2022-12-10T10:08:29;5.43;;;4.50;;
13321;SDS011;6730;46.248;6.930;2022-12-10T10:10:56;5.27;;;4.77;;
13321;SDS011;6730;46.248;6.930;2022-12-10T10:16:01;13.23;;;6.17;;
13321;SDS011;6730;46.248;6.930;2022-12-10T10:18:54;131.20;;;15.37;;
13321;SDS011;6730;46.248;6.930;2022-12-10T10:21:27;55.17;;;10.00;;
13321;SDS011;6730;46.248;6.930;2022-12-10T10:24:18;150.57;;;13.87;;
13321;SDS011;6730;46.248;6.930;2022-12-10T10:26:46;267.63;;;25.63;;
13321;SDS011;6730;46.248;6.930;2022-12-10T10:29:13;1301.23;;;124.93;;
13321;SDS011;6730;46.248;6.930;2022-12-10T10:31:42;1182.83;;;104.70;;
13321;SDS011;6730;46.248;6.930;2022-12-10T10:34:13;19.43;;;6.90;;
13321;SDS011;6730;46.248;6.930;2022-12-10T10:36:45;587.73;;;52.37;;
13321;SDS011;6730;46.248;6.930;2022-12-10T10:39:22;188.57;;;20.60;;
13321;SDS011;6730;46.248;6.930;2022-12-10T10:41:54;347.17;;;34.13;;
13321;SDS011;6730;46.248;6.930;2022-12-10T10:44:22;418.00;;;36.00;;
13321;SDS011;6730;46.248;6.930;2022-12-10T10:46:52;537.17;;;45.03;;
13321;SDS011;6730;46.248;6.930;2022-12-10T10:51:48;29.43;;;7.10;;
13321;SDS011;6730;46.248;6.930;2022-12-10T10:54:33;5.97;;;4.20;;
13321;SDS011;6730;46.248;6.930;2022-12-10T10:57:03;3.67;;;3.17;;
13321;SDS011;6730;46.248;6.930;2022-12-10T10:59:35;6.33;;;4.10;;
13321;SDS011;6730;46.248;6.930;2022-12-10T11:02:04;4.93;;;3.83;;
13321;SDS011;6730;46.248;6.930;2022-12-10T11:07:20;4.07;;;3.67;;
13321;SDS011;6730;46.248;6.930;2022-12-10T11:09:50;4.00;;;3.60;;
13321;SDS011;6730;46.248;6.930;2022-12-10T11:12:29;270.83;;;27.30;;
13321;SDS011;6730;46.248;6.930;2022-12-10T11:15:47;4.33;;;3.90;;
13321;SDS011;6730;46.248;6.930;2022-12-10T11:17:59;3.83;;;2.97;;
13321;SDS011;6730;46.248;6.930;2022-12-10T11:20:26;2.13;;;1.97;;
13321;SDS011;6730;46.248;6.930;2022-12-10T11:22:58;4.13;;;3.50;;
13321;SDS011;6730;46.248;6.930;2022-12-10T11:28:00;2.27;;;1.93;;
13321;SDS011;6730;46.248;6.930;2022-12-10T11:30:39;4.70;;;3.43;;
13321;SDS011;6730;46.248;6.930;2022-12-10T11:33:34;3.17;;;2.67;;
13321;SDS011;6730;46.248;6.930;2022-12-10T11:41:40;4.47;;;3.57;;
13321;SDS011;6730;46.248;6.930;2022-12-10T11:47:14;6.30;;;4.53;;
13321;SDS011;6730;46.248;6.930;2022-12-10T11:58:52;6.73;;;4.73;;
13321;SDS011;6730;46.248;6.930;2022-12-10T12:15:37;4.17;;;3.40;;
13321;SDS011;6730;46.248;6.930;2022-12-10T12:18:09;7.00;;;5.17;;
13321;SDS011;6730;46.248;6.930;2022-12-10T12:26:36;7.13;;;5.20;;
13321;SDS011;6730;46.248;6.930;2022-12-10T12:31:57;6.30;;;4.10;;
13321;SDS011;6730;46.248;6.930;2022-12-10T12:37:02;6.33;;;5.30;;
13321;SDS011;6730;46.248;6.930;2022-12-10T12:45:13;4.83;;;3.97;;
13321;SDS011;6730;46.248;6.930;2022-12-10T12:47:47;6.43;;;3.90;;
13321;SDS011;6730;46.248;6.930;2022-12-10T12:52:56;5.33;;;3.53;;
13321;SDS011;6730;46.248;6.930;2022-12-10T12:55:29;7.73;;;5.57;;
13321;SDS011;6730;46.248;6.930;2022-12-10T13:00:54;6.87;;;5.57;;
13321;SDS011;6730;46.248;6.930;2022-12-10T13:03:32;6.60;;;3.90;;
13321;SDS011;6730;46.248;6.930;2022-12-10T13:06:18;6.20;;;4.73;;
13321;SDS011;6730;46.248;6.930;2022-12-10T13:08:47;5.20;;;3.57;;
13321;SDS011;6730;46.248;6.930;2022-12-10T13:11:24;5.17;;;4.63;;
13321;SDS011;6730;46.248;6.930;2022-12-10T13:19:16;6.03;;;4.93;;
13321;SDS011;6730;46.248;6.930;2022-12-10T13:37:33;7.43;;;5.57;;
13321;SDS011;6730;46.248;6.930;2022-12-10T13:42:39;6.90;;;4.73;;
13321;SDS011;6730;46.248;6.930;2022-12-10T13:45:29;5.40;;;4.63;;
13321;SDS011;6730;46.248;6.930;2022-12-10T13:53:50;7.73;;;5.63;;
13321;SDS011;6730;46.248;6.930;2022-12-10T14:06:51;6.13;;;4.73;;
13321;SDS011;6730;46.248;6.930;2022-12-10T14:14:27;8.60;;;5.20;;
13321;SDS011;6730;46.248;6.930;2022-12-10T14:17:17;6.37;;;5.00;;
13321;SDS011;6730;46.248;6.930;2022-12-10T14:19:46;5.27;;;4.53;;
13321;SDS011;6730;46.248;6.930;2022-12-10T14:22:15;6.40;;;4.83;;
13321;SDS011;6730;46.248;6.930;2022-12-10T14:24:45;6.87;;;4.70;;
13321;SDS011;6730;46.248;6.930;2022-12-10T14:27:24;6.10;;;3.50;;
13321;SDS011;6730;46.248;6.930;2022-12-10T14:29:52;6.97;;;5.27;;
13321;SDS011;6730;46.248;6.930;2022-12-10T14:32:33;6.50;;;4.93;;
13321;SDS011;6730;46.248;6.930;2022-12-10T14:35:01;5.47;;;4.33;;
13321;SDS011;6730;46.248;6.930;2022-12-10T14:37:31;6.27;;;4.50;;
13321;SDS011;6730;46.248;6.930;2022-12-10T14:40:00;6.03;;;4.60;;
13321;SDS011;6730;46.248;6.930;2022-12-10T14:42:28;5.80;;;4.80;;
13321;SDS011;6730;46.248;6.930;2022-12-10T14:44:56;9.40;;;6.90;;
13321;SDS011;6730;46.248;6.930;2022-12-10T14:47:24;7.30;;;5.93;;
13321;SDS011;6730;46.248;6.930;2022-12-10T14:49:50;9.77;;;6.07;;
13321;SDS011;6730;46.248;6.930;2022-12-10T14:52:18;15.37;;;9.23;;
13321;SDS011;6730;46.248;6.930;2022-12-10T14:54:46;17.37;;;9.80;;
13321;SDS011;6730;46.248;6.930;2022-12-10T14:57:15;19.03;;;10.53;;
13321;SDS011;6730;46.248;6.930;2022-12-10T15:02:35;6.70;;;5.07;;
13321;SDS011;6730;46.248;6.930;2022-12-10T15:05:04;6.97;;;4.80;;
13321;SDS011;6730;46.248;6.930;2022-12-10T15:07:41;5.93;;;4.60;;
13321;SDS011;6730;46.248;6.930;2022-12-10T15:10:10;6.27;;;5.17;;
13321;SDS011;6730;46.248;6.930;2022-12-10T15:12:42;6.93;;;5.13;;
13321;SDS011;6730;46.248;6.930;2022-12-10T15:15:18;6.17;;;4.77;;
13321;SDS011;6730;46.248;6.930;2022-12-10T15:18:01;5.27;;;4.17;;
13321;SDS011;6730;46.248;6.930;2022-12-10T15:20:32;4.13;;;3.57;;
13321;SDS011;6730;46.248;6.930;2022-12-10T15:23:34;5.00;;;4.00;;
13321;SDS011;6730;46.248;6.930;2022-12-10T15:28:26;4.87;;;4.27;;
13321;SDS011;6730;46.248;6.930;2022-12-10T15:30:58;5.90;;;4.30;;
13321;SDS011;6730;46.248;6.930;2022-12-10T15:33:36;8.47;;;6.00;;
13321;SDS011;6730;46.248;6.930;2022-12-10T15:36:05;11.87;;;7.93;;
13321;SDS011;6730;46.248;6.930;2022-12-10T15:38:40;9.67;;;6.70;;
13321;SDS011;6730;46.248;6.930;2022-12-10T15:41:30;13.93;;;7.27;;
13321;SDS011;6730;46.248;6.930;2022-12-10T15:47:16;6.83;;;4.23;;
13321;SDS011;6730;46.248;6.930;2022-12-10T15:49:44;7.97;;;5.03;;
13321;SDS011;6730;46.248;6.930;2022-12-10T15:52:14;8.70;;;5.63;;
13321;SDS011;6730;46.248;6.930;2022-12-10T15:54:52;9.77;;;8.60;;
13321;SDS011;6730;46.248;6.930;2022-12-10T15:57:22;12.50;;;9.60;;
13321;SDS011;6730;46.248;6.930;2022-12-10T16:00:05;10.13;;;6.80;;
13321;SDS011;6730;46.248;6.930;2022-12-10T16:02:43;9.30;;;6.23;;
13321;SDS011;6730;46.248;6.930;2022-12-10T16:05:34;13.83;;;11.20;;
13321;SDS011;6730;46.248;6.930;2022-12-10T16:08:23;7.20;;;5.83;;
13321;SDS011;6730;46.248;6.930;2022-12-10T16:10:52;10.93;;;6.20;;
13321;SDS011;6730;46.248;6.930;2022-12-10T16:13:24;8.53;;;6.30;;
13321;SDS011;6730;46.248;6.930;2022-12-10T16:15:57;9.03;;;6.20;;
13321;SDS011;6730;46.248;6.930;2022-12-10T16:18:25;7.07;;;5.77;;
13321;SDS011;6730;46.248;6.930;2022-12-10T16:20:51;7.43;;;5.20;;
13321;SDS011;6730;46.248;6.930;2022-12-10T16:23:17;8.40;;;6.23;;
13321;SDS011;6730;46.248;6.930;2022-12-10T16:25:43;7.73;;;5.20;;
13321;SDS011;6730;46.248;6.930;2022-12-10T16:28:18;8.03;;;5.43;;
13321;SDS011;6730;46.248;6.930;2022-12-10T16:30:52;8.47;;;6.47;;
13321;SDS011;6730;46.248;6.930;2022-12-10T16:33:23;7.90;;;5.50;;
13321;SDS011;6730;46.248;6.930;2022-12-10T16:35:51;7.30;;;4.43;;
13321;SDS011;6730;46.248;6.930;2022-12-10T16:38:18;6.87;;;5.40;;
13321;SDS011;6730;46.248;6.930;2022-12-10T16:40:44;7.97;;;5.57;;
13321;SDS011;6730;46.248;6.930;2022-12-10T16:43:12;8.30;;;5.33;;
13321;SDS011;6730;46.248;6.930;2022-12-10T16:45:40;7.00;;;5.27;;
13321;SDS011;6730;46.248;6.930;2022-12-10T16:48:06;7.10;;;4.97;;
13321;SDS011;6730;46.248;6.930;2022-12-10T16:50:31;7.30;;;4.77;;
13321;SDS011;6730;46.248;6.930;2022-12-10T16:52:58;6.73;;;5.13;;
13321;SDS011;6730;46.248;6.930;2022-12-10T16:55:28;6.80;;;5.30;;
13321;SDS011;6730;46.248;6.930;2022-12-10T16:57:53;6.27;;;4.77;;
13321;SDS011;6730;46.248;6.930;2022-12-10T17:00:20;6.13;;;4.60;;
13321;SDS011;6730;46.248;6.930;2022-12-10T17:02:48;5.47;;;4.87;;
13321;SDS011;6730;46.248;6.930;2022-12-10T17:05:16;7.40;;;5.20;;
13321;SDS011;6730;46.248;6.930;2022-12-10T17:07:56;7.33;;;5.07;;
13321;SDS011;6730;46.248;6.930;2022-12-10T17:10:27;6.17;;;4.50;;
13321;SDS011;6730;46.248;6.930;2022-12-10T17:13:12;5.13;;;4.13;;
13321;SDS011;6730;46.248;6.930;2022-12-10T17:15:40;6.37;;;4.70;;
13321;SDS011;6730;46.248;6.930;2022-12-10T17:18:11;5.83;;;4.63;;
13321;SDS011;6730;46.248;6.930;2022-12-10T17:20:39;7.60;;;5.00;;
13321;SDS011;6730;46.248;6.930;2022-12-10T17:23:05;10.10;;;4.63;;
13321;SDS011;6730;46.248;6.930;2022-12-10T17:25:31;7.97;;;5.17;;
13321;SDS011;6730;46.248;6.930;2022-12-10T17:27:59;6.27;;;4.33;;